Terminal Aerodrome Forecast
Issued by NWS

Home | Current Version | Previous Version | Graphics & Text | Print | Product List | Glossary On
Versions: 1 2 3 4 5 6 7 8 9 10 11 12 13 14
000
FTUS43 KIWX 141200 RRA
TAFSBN
TAF
KSBN 141203Z 1412/1512 30024G32KT 6SM -SHRA OVC015
     FM141400 31021G28KT P6SM VCSH OVC012
     FM141700 33017G25KT P6SM OVC015
     FM150200 33012KT 5SM -SN BR OVC020
     FM150700 32012KT P6SM BKN040=

USA.gov is the U.S. government's official web portal to all federal, state and local government web resources and services.